Time;durP1;ratioP1;P1;durP2;ratioP2;P2;SDS_P1;SDS_P2;PMS_P1;PMS_P2;Temp;Humidity;BMP_temperature;BMP_pressure;BME280_temperature;BME280_humidity;BME280_pressure;Samples;Min_cycle;Max_cycle;Signal;HPM_P1;HPM_P2
2022/04/08 00:00:19;;;;;;;0.83;0.50;;;;;;;;;;5073130;28;20405;-72
2022/04/08 00:02:45;;;;;;;0.70;0.70;;;;;;;;;;5073765;28;20900;-71
2022/04/08 00:05:11;;;;;;;0.60;0.60;;;;;;;;;;5073833;28;20493;-70
2022/04/08 00:07:38;;;;;;;0.70;0.70;;;;;;;;;;5072455;28;20426;-70
2022/04/08 00:10:04;;;;;;;0.80;0.80;;;;;;;;;;5073499;28;20473;-71
2022/04/08 00:12:30;;;;;;;0.70;0.63;;;;;;;;;;5073591;28;20402;-72
2022/04/08 00:14:58;;;;;;;0.87;0.70;;;;;;;;;;5072284;28;20437;-72
2022/04/08 00:17:24;;;;;;;0.93;0.90;;;;;;;;;;5073629;28;20475;-71
2022/04/08 00:19:50;;;;;;;2.30;0.97;;;;;;;;;;5073522;28;20406;-72
2022/04/08 00:22:18;;;;;;;2.93;1.50;;;;;;;;;;5072196;28;20436;-71
2022/04/08 00:24:44;;;;;;;2.83;0.90;;;;;;;;;;5073488;28;20414;-72
2022/04/08 00:27:10;;;;;;;2.40;1.20;;;;;;;;;;5073455;28;20414;-72
2022/04/08 00:29:36;;;;;;;6.47;2.10;;;;;;;;;;5072116;28;21017;-75
2022/04/08 00:32:02;;;;;;;8.00;2.00;;;;;;;;;;5073484;28;20414;-71
2022/04/08 00:34:28;;;;;;;6.23;1.80;;;;;;;;;;5072138;28;20422;-73
2022/04/08 00:36:54;;;;;;;1.50;1.30;;;;;;;;;;5073375;28;20493;-74
2022/04/08 00:39:21;;;;;;;5.80;1.90;;;;;;;;;;5073211;28;20418;-72
2022/04/08 00:41:47;;;;;;;4.40;1.60;;;;;;;;;;5073254;28;20983;-74
2022/04/08 00:44:15;;;;;;;4.27;1.70;;;;;;;;;;5073517;28;20875;-72
2022/04/08 00:46:43;;;;;;;6.20;1.53;;;;;;;;;;5073281;28;20394;-72
2022/04/08 00:49:09;;;;;;;5.03;1.63;;;;;;;;;;5073164;28;20524;-71
2022/04/08 00:51:35;;;;;;;3.27;1.30;;;;;;;;;;5073125;28;20414;-71
2022/04/08 00:54:02;;;;;;;4.63;1.30;;;;;;;;;;5073112;28;20410;-72
2022/04/08 00:56:29;;;;;;;2.73;1.57;;;;;;;;;;5073207;28;20778;-71
2022/04/08 00:58:55;;;;;;;1.07;0.93;;;;;;;;;;5073060;28;20406;-71
2022/04/08 01:01:23;;;;;;;1.30;0.93;;;;;;;;;;5073427;28;20421;-71
2022/04/08 01:03:52;;;;;;;3.50;1.30;;;;;;;;;;5073127;28;20402;-71
2022/04/08 01:06:18;;;;;;;2.10;1.10;;;;;;;;;;5073050;28;20822;-73
2022/04/08 01:08:44;;;;;;;4.63;1.40;;;;;;;;;;5072940;28;20414;-73
2022/04/08 01:11:10;;;;;;;3.57;1.30;;;;;;;;;;5073879;28;20501;-72
2022/04/08 01:13:36;;;;;;;7.07;1.90;;;;;;;;;;5076951;28;20494;-73
2022/04/08 01:16:05;;;;;;;1.73;1.63;;;;;;;;;;5076944;28;20900;-72
2022/04/08 01:18:31;;;;;;;3.17;1.67;;;;;;;;;;5076978;28;20564;-76
2022/04/08 01:20:57;;;;;;;3.03;1.50;;;;;;;;;;5076815;28;20986;-75
2022/04/08 01:23:23;;;;;;;3.30;1.67;;;;;;;;;;5076753;28;20418;-74
2022/04/08 01:25:49;;;;;;;0.90;0.90;;;;;;;;;;5076795;28;20774;-74
2022/04/08 01:28:15;;;;;;;2.10;1.90;;;;;;;;;;5076640;28;20406;-76
2022/04/08 01:30:41;;;;;;;4.70;1.67;;;;;;;;;;5076544;28;20544;-74
2022/04/08 01:33:07;;;;;;;4.07;1.50;;;;;;;;;;5076591;28;20884;-75
2022/04/08 01:35:33;;;;;;;8.07;2.53;;;;;;;;;;5076504;28;20405;-74
2022/04/08 01:37:59;;;;;;;7.77;2.40;;;;;;;;;;5076516;28;20817;-72
2022/04/08 01:40:25;;;;;;;1.37;1.10;;;;;;;;;;5076334;28;20838;-72
2022/04/08 01:42:51;;;;;;;1.67;1.57;;;;;;;;;;5076389;28;20963;-72
2022/04/08 01:45:17;;;;;;;6.13;1.90;;;;;;;;;;5076240;28;20411;-73
2022/04/08 01:47:43;;;;;;;5.30;1.67;;;;;;;;;;5076348;28;20885;-76
2022/04/08 01:50:09;;;;;;;3.60;1.97;;;;;;;;;;5076191;28;20956;-74
2022/04/08 01:52:35;;;;;;;1.50;1.40;;;;;;;;;;5076458;28;20422;-73
2022/04/08 01:55:02;;;;;;;4.63;1.90;;;;;;;;;;5076335;28;20421;-75
2022/04/08 01:57:29;;;;;;;4.80;2.00;;;;;;;;;;5076173;28;20426;-73
2022/04/08 01:59:55;;;;;;;2.97;1.67;;;;;;;;;;5076141;28;20405;-75
2022/04/08 02:02:21;;;;;;;7.60;1.60;;;;;;;;;;5076083;28;20398;-75
2022/04/08 02:04:47;;;;;;;1.77;1.43;;;;;;;;;;5076068;28;20409;-73
2022/04/08 02:07:13;;;;;;;7.20;1.90;;;;;;;;;;5075970;28;20402;-74
2022/04/08 02:09:39;;;;;;;3.63;1.90;;;;;;;;;;5075808;28;20457;-75
2022/04/08 02:12:05;;;;;;;2.10;2.00;;;;;;;;;;5075842;28;20394;-77
2022/04/08 02:14:31;;;;;;;3.87;1.70;;;;;;;;;;5075840;28;20501;-73
2022/04/08 02:16:57;;;;;;;1.90;1.80;;;;;;;;;;5076061;28;20398;-71
2022/04/08 02:19:23;;;;;;;5.97;1.50;;;;;;;;;;5075760;28;20406;-72
2022/04/08 02:21:49;;;;;;;4.57;1.63;;;;;;;;;;5075795;28;20405;-73
2022/04/08 02:24:15;;;;;;;3.83;2.30;;;;;;;;;;5074941;28;20410;-75
2022/04/08 02:26:41;;;;;;;6.00;2.10;;;;;;;;;;5075649;28;20398;-76
2022/04/08 02:29:07;;;;;;;5.57;1.90;;;;;;;;;;5075464;28;20509;-74
2022/04/08 02:31:33;;;;;;;4.93;1.90;;;;;;;;;;5075430;28;20410;-75
2022/04/08 02:33:59;;;;;;;4.53;2.00;;;;;;;;;;5075544;28;20398;-77
2022/04/08 02:36:25;;;;;;;3.00;1.60;;;;;;;;;;5075424;28;20411;-75
2022/04/08 02:38:51;;;;;;;2.67;2.33;;;;;;;;;;5075324;28;20493;-77
2022/04/08 02:41:17;;;;;;;6.87;2.63;;;;;;;;;;5075239;28;20449;-75
2022/04/08 02:43:43;;;;;;;2.87;2.20;;;;;;;;;;5075536;28;20394;-77
2022/04/08 02:46:09;;;;;;;6.33;2.37;;;;;;;;;;5075209;28;20430;-78
2022/04/08 02:48:35;;;;;;;5.33;2.67;;;;;;;;;;5073882;28;20520;-72
2022/04/08 02:51:01;;;;;;;3.60;2.13;;;;;;;;;;5073753;28;20478;-73
2022/04/08 02:53:27;;;;;;;4.13;2.00;;;;;;;;;;5075049;28;20421;-71
2022/04/08 02:55:53;;;;;;;13.93;2.63;;;;;;;;;;5075126;28;20494;-73
2022/04/08 02:58:19;;;;;;;3.73;1.90;;;;;;;;;;5075172;28;20413;-76
2022/04/08 03:00:44;;;;;;;6.30;2.70;;;;;;;;;;5074978;28;20845;-71
2022/04/08 03:03:10;;;;;;;10.60;2.50;;;;;;;;;;5073702;28;20468;-77
2022/04/08 03:05:36;;;;;;;19.30;3.60;;;;;;;;;;5074772;28;20436;-71
2022/04/08 03:08:02;;;;;;;7.30;2.13;;;;;;;;;;5074755;28;20407;-74
2022/04/08 03:10:28;;;;;;;6.40;2.67;;;;;;;;;;5074669;28;20475;-73
2022/04/08 03:12:54;;;;;;;6.50;2.37;;;;;;;;;;5074653;28;20760;-77
2022/04/08 03:15:20;;;;;;;7.13;2.87;;;;;;;;;;5074629;28;20421;-78
2022/04/08 03:17:46;;;;;;;10.00;2.30;;;;;;;;;;5074587;28;20939;-77
2022/04/08 03:20:12;;;;;;;6.63;2.37;;;;;;;;;;5074466;28;20817;-79
2022/04/08 03:22:38;;;;;;;12.90;3.03;;;;;;;;;;5074557;28;20877;-72
2022/04/08 03:25:05;;;;;;;8.57;2.03;;;;;;;;;;5074533;28;20426;-77
2022/04/08 03:27:31;;;;;;;4.03;2.67;;;;;;;;;;5074670;28;20399;-80
2022/04/08 03:29:57;;;;;;;8.00;3.00;;;;;;;;;;5074362;28;20800;-81
2022/04/08 03:32:23;;;;;;;9.93;2.37;;;;;;;;;;5074442;28;20604;-80
2022/04/08 03:34:57;;;;;;;4.87;2.03;;;;;;;;;;5073560;28;20406;-84
2022/04/08 03:37:23;;;;;;;4.93;2.67;;;;;;;;;;5074458;28;20398;-82
2022/04/08 03:39:49;;;;;;;6.67;2.60;;;;;;;;;;5074311;28;20414;-83
2022/04/08 03:42:15;;;;;;;5.80;2.50;;;;;;;;;;5074134;28;20561;-77
2022/04/08 03:44:41;;;;;;;9.10;3.20;;;;;;;;;;5074089;28;20414;-76
2022/04/08 03:47:07;;;;;;;7.33;3.10;;;;;;;;;;5074073;28;20481;-79
2022/04/08 03:49:36;;;;;;;4.53;2.13;;;;;;;;;;5073958;28;20457;-77
2022/04/08 03:52:04;;;;;;;3.83;1.63;;;;;;;;;;5073946;28;20406;-83
2022/04/08 03:54:30;;;;;;;9.20;2.73;;;;;;;;;;5072683;28;20781;-82
2022/04/08 03:56:56;;;;;;;7.03;2.60;;;;;;;;;;5074007;28;20421;-69
2022/04/08 03:59:22;;;;;;;5.57;2.47;;;;;;;;;;5073905;28;20409;-76
2022/04/08 04:01:49;;;;;;;6.60;2.43;;;;;;;;;;5073846;28;20771;-79
2022/04/08 04:04:15;;;;;;;4.90;2.00;;;;;;;;;;5073750;28;20770;-83
2022/04/08 04:06:41;;;;;;;5.60;2.10;;;;;;;;;;5073848;28;20398;-83
2022/04/08 04:09:07;;;;;;;3.47;1.97;;;;;;;;;;5073762;28;20564;-79
2022/04/08 04:11:34;;;;;;;5.20;1.70;;;;;;;;;;5074161;28;20430;-80
2022/04/08 04:14:00;;;;;;;7.07;2.10;;;;;;;;;;5073634;28;20413;-81
2022/04/08 04:16:27;;;;;;;6.37;2.43;;;;;;;;;;5073624;28;20532;-82
2022/04/08 04:18:53;;;;;;;2.87;2.00;;;;;;;;;;5072420;28;20487;-83
2022/04/08 04:21:19;;;;;;;3.67;2.00;;;;;;;;;;5073742;28;20405;-82
2022/04/08 04:23:45;;;;;;;9.40;2.63;;;;;;;;;;5074267;28;20517;-83
2022/04/08 04:26:11;;;;;;;15.33;8.27;;;;;;;;;;5073728;28;20497;-83
2022/04/08 04:28:37;;;;;;;11.90;3.60;;;;;;;;;;5072562;28;20429;-83
2022/04/08 04:31:04;;;;;;;18.17;12.00;;;;;;;;;;5072400;28;21019;-81
2022/04/08 04:33:31;;;;;;;8.47;5.47;;;;;;;;;;5073560;28;20950;-83
2022/04/08 04:35:56;;;;;;;18.00;12.50;;;;;;;;;;5072261;28;20430;-80
2022/04/08 04:38:23;;;;;;;28.07;17.60;;;;;;;;;;5073302;28;20906;-82
2022/04/08 04:40:49;;;;;;;17.30;12.00;;;;;;;;;;5072173;28;20476;-81
2022/04/08 04:43:15;;;;;;;6.87;3.80;;;;;;;;;;5073382;28;20409;-82
2022/04/08 04:45:41;;;;;;;5.90;2.50;;;;;;;;;;5072076;28;20519;-79
2022/04/08 04:48:08;;;;;;;7.00;2.57;;;;;;;;;;5077611;28;20494;-82
2022/04/08 04:50:34;;;;;;;10.77;2.40;;;;;;;;;;5077309;28;20877;-81
2022/04/08 04:53:00;;;;;;;4.57;2.50;;;;;;;;;;5075712;28;20417;-80
2022/04/08 04:55:26;;;;;;;6.20;3.30;;;;;;;;;;5075997;28;20804;-82
2022/04/08 04:57:53;;;;;;;8.60;4.80;;;;;;;;;;5077275;28;20416;-83
2022/04/08 05:00:19;;;;;;;4.07;2.53;;;;;;;;;;5077420;28;20441;-83
2022/04/08 05:02:46;;;;;;;3.17;2.23;;;;;;;;;;5077411;28;20426;-82
2022/04/08 05:05:12;;;;;;;4.60;2.83;;;;;;;;;;5077352;28;20505;-81
2022/04/08 05:07:38;;;;;;;5.03;2.43;;;;;;;;;;5077229;28;20408;-82
2022/04/08 05:10:04;;;;;;;5.77;2.73;;;;;;;;;;5077230;28;20501;-76
2022/04/08 05:12:30;;;;;;;10.03;3.50;;;;;;;;;;5077261;28;20409;-82
2022/04/08 05:14:57;;;;;;;7.00;3.08;;;;;;;;;;5076150;28;20413;-80
2022/04/08 05:17:23;;;;;;;4.67;2.90;;;;;;;;;;5076901;28;20642;-70
2022/04/08 05:19:49;;;;;;;6.90;3.00;;;;;;;;;;5076825;28;20441;-79
2022/04/08 05:22:15;;;;;;;8.40;3.87;;;;;;;;;;5076802;28;20503;-83
2022/04/08 05:24:41;;;;;;;6.30;2.43;;;;;;;;;;5075422;28;20796;-83
2022/04/08 05:27:07;;;;;;;2.77;2.57;;;;;;;;;;5077035;28;20826;-83
2022/04/08 05:29:34;;;;;;;24.20;19.13;;;;;;;;;;5076687;28;20522;-71
2022/04/08 05:32:00;;;;;;;11.43;8.70;;;;;;;;;;5076725;28;20399;-79
2022/04/08 05:34:27;;;;;;;5.17;2.47;;;;;;;;;;5076648;28;20414;-75
2022/04/08 05:36:53;;;;;;;2.33;2.13;;;;;;;;;;5076742;28;20447;-75
2022/04/08 05:39:19;;;;;;;5.13;2.30;;;;;;;;;;5076643;28;20508;-75
2022/04/08 05:41:45;;;;;;;3.23;1.70;;;;;;;;;;5076480;28;20504;-76
2022/04/08 05:44:11;;;;;;;1.70;1.60;;;;;;;;;;5076388;28;20444;-77
2022/04/08 05:46:37;;;;;;;2.77;2.10;;;;;;;;;;5076387;28;20438;-77
2022/04/08 05:49:03;;;;;;;5.03;1.70;;;;;;;;;;5074974;28;20508;-77
2022/04/08 05:51:29;;;;;;;3.57;1.50;;;;;;;;;;5076338;28;20422;-76
2022/04/08 05:53:55;;;;;;;7.07;1.50;;;;;;;;;;5076280;28;20420;-77
2022/04/08 05:56:21;;;;;;;2.83;2.27;;;;;;;;;;5076331;28;20443;-81
2022/04/08 05:58:47;;;;;;;2.00;1.47;;;;;;;;;;5078161;28;20825;-83
2022/04/08 06:01:13;;;;;;;3.93;1.90;;;;;;;;;;5076160;28;20747;-76
2022/04/08 06:03:38;;;;;;;1.57;1.37;;;;;;;;;;5076348;28;20398;-79
2022/04/08 06:06:04;;;;;;;3.50;1.53;;;;;;;;;;5076180;28;20493;-82
2022/04/08 06:08:31;;;;;;;2.87;1.70;;;;;;;;;;5075997;28;20893;-81
2022/04/08 06:10:57;;;;;;;3.80;1.10;;;;;;;;;;5074576;28;20984;-80
2022/04/08 06:13:26;;;;;;;4.33;1.40;;;;;;;;;;5074611;28;20518;-81
2022/04/08 06:15:53;;;;;;;4.10;1.50;;;;;;;;;;5075879;28;20402;-77
2022/04/08 06:18:19;;;;;;;1.50;1.40;;;;;;;;;;5075756;28;20963;-80
2022/04/08 06:20:46;;;;;;;1.80;1.70;;;;;;;;;;5074639;28;20475;-78
2022/04/08 06:23:12;;;;;;;4.53;1.67;;;;;;;;;;5075784;28;20411;-75
2022/04/08 06:25:38;;;;;;;4.57;3.17;;;;;;;;;;5075646;28;20832;-77
2022/04/08 06:28:05;;;;;;;8.43;4.80;;;;;;;;;;5076000;28;20406;-82
2022/04/08 06:30:35;;;;;;;4.07;3.20;;;;;;;;;;5075541;28;20524;-83
2022/04/08 06:33:01;;;;;;;6.43;1.90;;;;;;;;;;5075678;28;20459;-84
2022/04/08 06:35:27;;;;;;;2.50;2.00;;;;;;;;;;5071543;28;20430;-86
2022/04/08 06:38:00;;;;;;;5.20;2.30;;;;;;;;;;5072044;28;20495;-87
2022/04/08 06:40:26;;;;;;;2.00;1.60;;;;;;;;;;5072699;28;20518;-85
2022/04/08 06:42:57;;;;;;;1.27;0.80;;;;;;;;;;5073032;28;20469;-84
2022/04/08 06:45:23;;;;;;;1.17;1.17;;;;;;;;;;5072949;28;20426;-84
2022/04/08 06:47:49;;;;;;;2.23;1.37;;;;;;;;;;5070342;28;20975;-78
2022/04/08 06:50:16;;;;;;;2.23;1.33;;;;;;;;;;5072349;28;20466;-79
2022/04/08 06:52:43;;;;;;;2.37;1.83;;;;;;;;;;5074249;28;20429;-80
2022/04/08 06:55:09;;;;;;;1.90;1.37;;;;;;;;;;5075182;28;20428;-79
2022/04/08 06:57:36;;;;;;;2.77;1.90;;;;;;;;;;5075099;28;20420;-79
2022/04/08 07:00:03;;;;;;;3.17;1.50;;;;;;;;;;5075162;28;20405;-78
2022/04/08 07:02:29;;;;;;;4.00;1.80;;;;;;;;;;5075111;28;20394;-81
2022/04/08 07:04:55;;;;;;;5.13;1.63;;;;;;;;;;5073762;28;20426;-81
2022/04/08 07:07:21;;;;;;;1.33;1.33;;;;;;;;;;5075218;28;20406;-83
2022/04/08 07:09:47;;;;;;;3.60;1.83;;;;;;;;;;5074768;28;20461;-86
2022/04/08 07:12:13;;;;;;;2.03;1.90;;;;;;;;;;5074886;28;20885;-82
2022/04/08 07:14:39;;;;;;;3.87;1.80;;;;;;;;;;5073094;28;20446;-76
2022/04/08 07:17:05;;;;;;;1.33;1.10;;;;;;;;;;5074427;28;20414;-77
2022/04/08 07:19:31;;;;;;;2.37;1.80;;;;;;;;;;5073571;28;20493;-84
2022/04/08 07:21:57;;;;;;;5.53;2.50;;;;;;;;;;5074763;28;20889;-79
2022/04/08 07:24:23;;;;;;;4.80;2.50;;;;;;;;;;5074488;28;20513;-79
2022/04/08 07:26:49;;;;;;;3.40;1.90;;;;;;;;;;5074563;28;20373;-80
2022/04/08 07:29:15;;;;;;;4.90;2.53;;;;;;;;;;5074369;28;20792;-83
2022/04/08 07:31:43;;;;;;;5.23;3.67;;;;;;;;;;5074370;28;20909;-83
2022/04/08 07:34:09;;;;;;;4.93;3.17;;;;;;;;;;5074654;28;20745;-80
2022/04/08 07:36:35;;;;;;;2.30;2.07;;;;;;;;;;5074525;28;20399;-80
2022/04/08 07:39:01;;;;;;;3.13;1.90;;;;;;;;;;5072904;28;20837;-81
2022/04/08 07:41:27;;;;;;;5.30;1.97;;;;;;;;;;5074387;28;20825;-82
2022/04/08 07:43:55;;;;;;;2.90;1.83;;;;;;;;;;5074126;28;20414;-83
2022/04/08 07:46:21;;;;;;;2.93;1.70;;;;;;;;;;5074494;28;20394;-83
2022/04/08 07:48:47;;;;;;;1.60;1.50;;;;;;;;;;5074244;28;20429;-82
2022/04/08 07:51:13;;;;;;;5.90;2.90;;;;;;;;;;5074141;28;20497;-82
2022/04/08 07:53:39;;;;;;;1.90;1.80;;;;;;;;;;5073943;28;20417;-79
2022/04/08 07:56:05;;;;;;;1.63;1.53;;;;;;;;;;5074082;28;20410;-79
2022/04/08 07:58:31;;;;;;;2.93;2.00;;;;;;;;;;5073971;28;20821;-82
2022/04/08 08:00:57;;;;;;;3.27;2.97;;;;;;;;;;5074157;28;20671;-82
2022/04/08 08:03:23;;;;;;;6.63;2.23;;;;;;;;;;5073440;28;20426;-81
2022/04/08 08:05:52;;;;;;;6.57;2.93;;;;;;;;;;5074274;28;20410;-82
2022/04/08 08:08:19;;;;;;;2.07;1.90;;;;;;;;;;5073818;28;20406;-82
2022/04/08 08:10:45;;;;;;;5.83;2.40;;;;;;;;;;5073839;28;20466;-83
2022/04/08 08:13:11;;;;;;;6.67;2.60;;;;;;;;;;5073754;28;20435;-82
2022/04/08 08:15:37;;;;;;;3.10;2.97;;;;;;;;;;5073783;28;20401;-84
2022/04/08 08:18:03;;;;;;;4.33;3.90;;;;;;;;;;5073698;28;20404;-83
2022/04/08 08:20:29;;;;;;;3.77;3.60;;;;;;;;;;5073403;28;20399;-84
2022/04/08 08:22:55;;;;;;;4.80;2.77;;;;;;;;;;5073509;28;20402;-85
2022/04/08 08:25:21;;;;;;;4.20;3.80;;;;;;;;;;5073613;28;20407;-79
2022/04/08 08:27:48;;;;;;;9.20;3.23;;;;;;;;;;5073576;28;20410;-82
2022/04/08 08:30:15;;;;;;;51.07;32.30;;;;;;;;;;5073534;28;20532;-79
2022/04/08 08:32:43;;;;;;;30.07;22.00;;;;;;;;;;5073569;28;20898;-78
2022/04/08 08:35:10;;;;;;;31.10;20.60;;;;;;;;;;5073430;28;20928;-82
2022/04/08 08:37:36;;;;;;;6.17;5.67;;;;;;;;;;5073511;28;20402;-80
2022/04/08 08:40:06;;;;;;;10.00;9.00;;;;;;;;;;5073440;28;20525;-75
2022/04/08 08:42:32;;;;;;;4.57;2.93;;;;;;;;;;5073083;28;20466;-76
2022/04/08 08:44:58;;;;;;;8.03;5.43;;;;;;;;;;5073339;28;20467;-75
2022/04/08 08:47:29;;;;;;;13.57;6.60;;;;;;;;;;5073287;28;20410;-76
2022/04/08 08:49:56;;;;;;;18.40;8.53;;;;;;;;;;5071950;28;20907;-82
2022/04/08 08:52:22;;;;;;;3.07;2.87;;;;;;;;;;5073320;28;20874;-74
2022/04/08 08:54:48;;;;;;;16.60;9.30;;;;;;;;;;5071875;28;20434;-78
2022/04/08 08:57:18;;;;;;;3.80;3.40;;;;;;;;;;5073437;28;20407;-76
2022/04/08 08:59:44;;;;;;;3.73;3.47;;;;;;;;;;5072006;28;20425;-77
2022/04/08 09:02:12;;;;;;;3.50;3.20;;;;;;;;;;5073186;28;20413;-79
2022/04/08 09:04:41;;;;;;;3.20;2.60;;;;;;;;;;5073365;28;20402;-76
2022/04/08 09:07:09;;;;;;;5.93;5.40;;;;;;;;;;5073154;28;20943;-80
2022/04/08 09:09:35;;;;;;;3.60;2.80;;;;;;;;;;5071863;28;20464;-76
2022/04/08 09:12:14;;;;;;;6.07;2.90;;;;;;;;;;5072955;28;20820;-79
2022/04/08 09:14:44;;;;;;;2.67;2.57;;;;;;;;;;5073065;28;20402;-74
2022/04/08 09:17:10;;;;;;;2.73;2.53;;;;;;;;;;5073845;28;20406;-80
2022/04/08 09:19:36;;;;;;;2.70;2.60;;;;;;;;;;5073488;28;20437;-79
2022/04/08 09:22:02;;;;;;;5.27;4.10;;;;;;;;;;5076354;28;20428;-77
2022/04/08 09:24:28;;;;;;;3.00;2.07;;;;;;;;;;5072677;28;20513;-85
2022/04/08 09:26:55;;;;;;;3.57;2.00;;;;;;;;;;5081890;28;20434;-73
2022/04/08 09:29:21;;;;;;;1.60;1.50;;;;;;;;;;5072953;28;20454;-74
2022/04/08 09:31:51;;;;;;;3.47;1.30;;;;;;;;;;5072065;28;20437;-82
2022/04/08 09:34:17;;;;;;;1.10;0.87;;;;;;;;;;5077132;28;21015;-75
2022/04/08 09:36:44;;;;;;;1.87;1.33;;;;;;;;;;5077102;28;20417;-83
2022/04/08 09:39:10;;;;;;;1.23;0.90;;;;;;;;;;5077085;28;20509;-79
2022/04/08 09:41:38;;;;;;;0.87;0.80;;;;;;;;;;5075819;28;20473;-81
2022/04/08 09:44:04;;;;;;;1.07;1.00;;;;;;;;;;5076547;28;20426;-87
2022/04/08 09:46:30;;;;;;;0.93;0.93;;;;;;;;;;5077795;28;20414;-86
2022/04/08 09:48:56;;;;;;;1.00;1.00;;;;;;;;;;5077130;28;20777;-80
2022/04/08 09:51:23;;;;;;;1.00;1.00;;;;;;;;;;5075570;28;20799;-77
2022/04/08 09:53:59;;;;;;;0.83;0.83;;;;;;;;;;5076724;28;20467;-78
2022/04/08 09:56:27;;;;;;;1.80;0.90;;;;;;;;;;5076699;28;20467;-80
2022/04/08 09:59:12;;;;;;;1.27;1.17;;;;;;;;;;5076745;28;20401;-82
2022/04/08 10:01:39;;;;;;;1.80;0.70;;;;;;;;;;5076740;28;20455;-74
2022/04/08 10:04:07;;;;;;;0.70;0.70;;;;;;;;;;5076211;28;20397;-72
2022/04/08 10:06:33;;;;;;;1.00;1.00;;;;;;;;;;5076304;28;20398;-77
2022/04/08 10:09:00;;;;;;;1.10;0.87;;;;;;;;;;5076034;28;20406;-70
2022/04/08 10:11:35;;;;;;;1.03;0.80;;;;;;;;;;5075975;28;20897;-72
2022/04/08 10:14:34;;;;;;;0.90;0.90;;;;;;;;;;5076005;28;20881;-72
2022/04/08 10:17:00;;;;;;;1.90;0.80;;;;;;;;;;5052443;28;20472;-71
2022/04/08 10:19:25;;;;;;;1.20;1.10;;;;;;;;;;5075826;28;20464;-72
2022/04/08 10:21:55;;;;;;;2.23;1.33;;;;;;;;;;5075769;28;20495;-71
2022/04/08 10:24:25;;;;;;;1.53;0.90;;;;;;;;;;5075812;28;20413;-83
2022/04/08 10:26:59;;;;;;;1.00;1.00;;;;;;;;;;5075796;28;20414;-77
2022/04/08 10:29:25;;;;;;;1.10;1.00;;;;;;;;;;5075776;28;20465;-82
2022/04/08 10:31:55;;;;;;;0.60;0.60;;;;;;;;;;5076081;28;20430;-77
2022/04/08 10:34:22;;;;;;;0.80;0.80;;;;;;;;;;5075619;28;20414;-83
2022/04/08 10:36:48;;;;;;;1.10;1.07;;;;;;;;;;5075743;28;20399;-78
2022/04/08 10:39:15;;;;;;;3.70;0.70;;;;;;;;;;5075681;28;20418;-77
2022/04/08 10:41:48;;;;;;;1.03;0.93;;;;;;;;;;5074006;28;20505;-80
2022/04/08 10:44:15;;;;;;;0.90;0.90;;;;;;;;;;5073545;28;20430;-79
2022/04/08 10:46:53;;;;;;;0.73;0.73;;;;;;;;;;5075808;28;20489;-78
2022/04/08 10:49:19;;;;;;;0.60;0.60;;;;;;;;;;5075432;28;20489;-82
2022/04/08 10:51:46;;;;;;;1.20;1.10;;;;;;;;;;5075357;28;20407;-79
2022/04/08 10:54:12;;;;;;;0.70;0.70;;;;;;;;;;5075153;28;20909;-75
2022/04/08 10:56:38;;;;;;;1.30;0.83;;;;;;;;;;5075200;28;20402;-74
2022/04/08 10:59:05;;;;;;;0.70;0.70;;;;;;;;;;5075192;28;20414;-73
2022/04/08 11:01:36;;;;;;;0.60;0.60;;;;;;;;;;5074990;28;20874;-72
2022/04/08 11:04:05;;;;;;;1.10;0.77;;;;;;;;;;5073702;28;20418;-76
2022/04/08 11:06:33;;;;;;;0.80;0.60;;;;;;;;;;5075133;28;20414;-75
2022/04/08 11:09:09;;;;;;;0.70;0.70;;;;;;;;;;5074946;28;20406;-72
2022/04/08 11:11:36;;;;;;;0.60;0.60;;;;;;;;;;5074807;28;20441;-75
2022/04/08 11:14:03;;;;;;;0.97;0.90;;;;;;;;;;5074799;28;20406;-72
2022/04/08 11:16:29;;;;;;;1.13;0.90;;;;;;;;;;5075027;28;20414;-74
2022/04/08 11:18:56;;;;;;;0.73;0.73;;;;;;;;;;5074591;28;20501;-72
2022/04/08 11:21:23;;;;;;;0.67;0.67;;;;;;;;;;5074763;28;20441;-77
2022/04/08 11:24:19;;;;;;;0.60;0.60;;;;;;;;;;5073392;28;20426;-71
2022/04/08 11:26:49;;;;;;;1.27;0.60;;;;;;;;;;5074133;28;20422;-75
2022/04/08 11:29:19;;;;;;;0.40;0.40;;;;;;;;;;5075319;28;20442;-85
2022/04/08 11:31:46;;;;;;;0.60;0.60;;;;;;;;;;5073491;28;20448;-79
2022/04/08 11:34:13;;;;;;;0.70;0.50;;;;;;;;;;5074821;28;20406;-80
2022/04/08 11:36:39;;;;;;;0.77;0.60;;;;;;;;;;5074661;28;20406;-80
2022/04/08 11:39:05;;;;;;;0.50;0.50;;;;;;;;;;5074372;28;20422;-79
2022/04/08 11:41:31;;;;;;;5.57;5.03;;;;;;;;;;5074046;28;20465;-80
2022/04/08 11:43:57;;;;;;;0.93;0.60;;;;;;;;;;5074170;28;20505;-81
2022/04/08 11:46:23;;;;;;;0.57;0.57;;;;;;;;;;5074275;28;20417;-77
2022/04/08 11:48:49;;;;;;;1.80;0.90;;;;;;;;;;5074136;28;20410;-81
2022/04/08 11:51:19;;;;;;;0.90;0.90;;;;;;;;;;5074082;28;20466;-80
2022/04/08 11:53:49;;;;;;;1.53;0.60;;;;;;;;;;5073955;28;20782;-81
2022/04/08 11:56:22;;;;;;;0.40;0.40;;;;;;;;;;5073320;28;20463;-79
2022/04/08 11:58:55;;;;;;;0.80;0.50;;;;;;;;;;5073956;28;20410;-82
2022/04/08 12:01:21;;;;;;;6.37;1.33;;;;;;;;;;5072725;28;20513;-78
2022/04/08 12:03:49;;;;;;;1.30;1.20;;;;;;;;;;5073958;28;20497;-81
2022/04/08 12:06:18;;;;;;;0.90;0.90;;;;;;;;;;5073929;28;20460;-84
2022/04/08 12:08:44;;;;;;;1.03;0.57;;;;;;;;;;5073717;28;20418;-83
2022/04/08 12:11:10;;;;;;;1.03;0.63;;;;;;;;;;5073782;28;20899;-81
2022/04/08 12:13:39;;;;;;;1.37;0.70;;;;;;;;;;5073744;28;20414;-82
2022/04/08 12:16:08;;;;;;;0.60;0.60;;;;;;;;;;5073804;28;20833;-79
2022/04/08 12:18:34;;;;;;;0.87;0.70;;;;;;;;;;5073805;28;20409;-85
2022/04/08 12:21:01;;;;;;;0.73;0.50;;;;;;;;;;5076102;28;20422;-82
2022/04/08 12:23:27;;;;;;;0.60;0.50;;;;;;;;;;5073695;28;20394;-82
2022/04/08 12:26:02;;;;;;;0.57;0.50;;;;;;;;;;5073970;28;20758;-78
2022/04/08 12:28:32;;;;;;;1.07;1.07;;;;;;;;;;5072340;28;20483;-82
2022/04/08 12:31:00;;;;;;;1.60;1.50;;;;;;;;;;5073538;28;20504;-79
2022/04/08 12:33:26;;;;;;;0.57;0.57;;;;;;;;;;5073674;28;20387;-72
2022/04/08 12:35:54;;;;;;;0.67;0.67;;;;;;;;;;5073565;28;20528;-74
2022/04/08 12:38:19;;;;;;;0.70;0.70;;;;;;;;;;5072103;28;20453;-82
2022/04/08 12:40:46;;;;;;;1.33;0.87;;;;;;;;;;5072226;28;20515;-84
2022/04/08 12:43:12;;;;;;;1.80;0.70;;;;;;;;;;5073937;28;20490;-78
2022/04/08 12:45:38;;;;;;;0.60;0.60;;;;;;;;;;5074243;28;20402;-79
2022/04/08 12:48:05;;;;;;;0.90;0.63;;;;;;;;;;5073750;28;20460;-76
2022/04/08 12:50:32;;;;;;;1.33;0.63;;;;;;;;;;5073720;28;20465;-74
2022/04/08 12:52:58;;;;;;;0.60;0.60;;;;;;;;;;5073258;28;20444;-77
2022/04/08 12:55:24;;;;;;;0.70;0.70;;;;;;;;;;5072994;28;20513;-77
2022/04/08 12:57:50;;;;;;;1.17;0.70;;;;;;;;;;5073329;28;20927;-73
2022/04/08 13:00:17;;;;;;;0.60;0.60;;;;;;;;;;5072882;28;20405;-74
2022/04/08 13:02:45;;;;;;;1.27;0.70;;;;;;;;;;5073104;28;20402;-78
2022/04/08 13:05:11;;;;;;;2.43;2.00;;;;;;;;;;5073267;28;20905;-74
2022/04/08 13:07:37;;;;;;;2.17;2.07;;;;;;;;;;5074706;28;20443;-74
2022/04/08 13:10:04;;;;;;;0.93;0.93;;;;;;;;;;5075839;28;20477;-78
2022/04/08 13:12:31;;;;;;;0.90;0.70;;;;;;;;;;5076723;28;20474;-77
2022/04/08 13:14:58;;;;;;;0.60;0.60;;;;;;;;;;5076815;28;20474;-74
2022/04/08 13:17:24;;;;;;;1.67;1.10;;;;;;;;;;5075575;28;20406;-77
2022/04/08 13:19:50;;;;;;;2.30;0.83;;;;;;;;;;5076845;28;20422;-79
2022/04/08 13:22:16;;;;;;;0.87;0.87;;;;;;;;;;5075469;28;20472;-75
2022/04/08 13:24:43;;;;;;;1.23;0.70;;;;;;;;;;5076612;28;20931;-77
2022/04/08 13:27:09;;;;;;;0.80;0.80;;;;;;;;;;5076786;28;20506;-72
2022/04/08 13:29:36;;;;;;;1.63;0.73;;;;;;;;;;5076664;28;20928;-72
2022/04/08 13:32:02;;;;;;;0.80;0.80;;;;;;;;;;5076575;28;20489;-74
2022/04/08 13:34:29;;;;;;;1.23;1.23;;;;;;;;;;5076711;28;20410;-75
2022/04/08 13:36:55;;;;;;;1.00;1.00;;;;;;;;;;5076516;28;20728;-75
2022/04/08 13:39:21;;;;;;;1.00;1.00;;;;;;;;;;5076254;28;20433;-73
2022/04/08 13:41:50;;;;;;;1.23;1.13;;;;;;;;;;5076603;28;20465;-72
2022/04/08 13:44:18;;;;;;;0.87;0.87;;;;;;;;;;5076076;28;20421;-73
2022/04/08 13:46:44;;;;;;;1.00;1.00;;;;;;;;;;5076452;28;20390;-80
2022/04/08 13:49:11;;;;;;;2.57;1.13;;;;;;;;;;5075445;28;20406;-74
2022/04/08 13:51:37;;;;;;;1.23;1.23;;;;;;;;;;5076048;28;20838;-73
2022/04/08 13:54:03;;;;;;;1.60;1.07;;;;;;;;;;5076282;28;20505;-78
2022/04/08 13:56:29;;;;;;;0.90;0.90;;;;;;;;;;5074665;28;20789;-77
2022/04/08 13:58:56;;;;;;;5.97;0.80;;;;;;;;;;5075705;28;20407;-72
2022/04/08 14:01:21;;;;;;;2.50;1.20;;;;;;;;;;5076096;28;20409;-71
2022/04/08 14:03:47;;;;;;;1.20;1.10;;;;;;;;;;5075896;28;20414;-71
2022/04/08 14:06:13;;;;;;;0.80;0.80;;;;;;;;;;5075649;28;20452;-74
2022/04/08 14:08:40;;;;;;;0.97;0.70;;;;;;;;;;5075724;28;20915;-73
2022/04/08 14:11:06;;;;;;;3.33;3.23;;;;;;;;;;5075561;28;20859;-75
2022/04/08 14:13:33;;;;;;;1.90;1.90;;;;;;;;;;5075825;28;20406;-77
2022/04/08 14:15:59;;;;;;;0.90;0.90;;;;;;;;;;5075736;28;20464;-77
2022/04/08 14:18:25;;;;;;;0.77;0.67;;;;;;;;;;5074835;28;20398;-74
2022/04/08 14:20:51;;;;;;;1.70;0.90;;;;;;;;;;5075048;28;20460;-75
2022/04/08 14:23:17;;;;;;;0.73;0.73;;;;;;;;;;5075441;28;20456;-81
2022/04/08 14:25:44;;;;;;;0.93;0.93;;;;;;;;;;5075536;28;20422;-76
2022/04/08 14:28:10;;;;;;;0.60;0.60;;;;;;;;;;5075387;28;20490;-79
2022/04/08 14:30:39;;;;;;;2.10;0.67;;;;;;;;;;5075371;28;20833;-80
2022/04/08 14:33:06;;;;;;;0.60;0.60;;;;;;;;;;5075133;28;20497;-75
2022/04/08 14:35:32;;;;;;;1.47;1.00;;;;;;;;;;5075194;28;21033;-78
2022/04/08 14:37:58;;;;;;;2.10;0.80;;;;;;;;;;5075143;28;20414;-80
2022/04/08 14:40:24;;;;;;;2.63;0.87;;;;;;;;;;5075328;28;20423;-75